sensor_id;sensor_type;location;lat;lon;timestamp;P1;durP1;ratioP1;P2;durP2;ratioP2
35150;SDS011;55720;51.972;4.624;2023-04-03T00:01:33;1.52;;;1.17;;
35150;SDS011;55720;51.972;4.624;2023-04-03T00:03:59;2.58;;;1.00;;
35150;SDS011;55720;51.972;4.624;2023-04-03T00:06:24;2.92;;;1.33;;
35150;SDS011;55720;51.972;4.624;2023-04-03T00:08:51;1.83;;;1.25;;
35150;SDS011;55720;51.972;4.624;2023-04-03T00:11:17;2.13;;;1.10;;
35150;SDS011;55720;51.972;4.624;2023-04-03T00:13:43;3.72;;;1.10;;
35150;SDS011;55720;51.972;4.624;2023-04-03T00:16:09;1.60;;;1.00;;
35150;SDS011;55720;51.972;4.624;2023-04-03T00:18:38;3.65;;;1.30;;
35150;SDS011;55720;51.972;4.624;2023-04-03T00:21:04;1.67;;;1.15;;
35150;SDS011;55720;51.972;4.624;2023-04-03T00:23:30;4.40;;;1.42;;
35150;SDS011;55720;51.972;4.624;2023-04-03T00:25:56;4.10;;;1.02;;
35150;SDS011;55720;51.972;4.624;2023-04-03T00:28:22;3.67;;;1.08;;
35150;SDS011;55720;51.972;4.624;2023-04-03T00:30:49;2.63;;;1.20;;
35150;SDS011;55720;51.972;4.624;2023-04-03T00:33:15;1.02;;;0.90;;
35150;SDS011;55720;51.972;4.624;2023-04-03T00:35:40;1.95;;;0.90;;
35150;SDS011;55720;51.972;4.624;2023-04-03T00:38:06;3.47;;;1.10;;
35150;SDS011;55720;51.972;4.624;2023-04-03T00:40:36;4.88;;;1.08;;
35150;SDS011;55720;51.972;4.624;2023-04-03T00:43:13;2.83;;;1.30;;
35150;SDS011;55720;51.972;4.624;2023-04-03T00:45:50;3.08;;;1.00;;
35150;SDS011;55720;51.972;4.624;2023-04-03T00:50:54;1.75;;;1.08;;
35150;SDS011;55720;51.972;4.624;2023-04-03T00:53:40;2.97;;;1.30;;
35150;SDS011;55720;51.972;4.624;2023-04-03T00:56:19;2.80;;;1.17;;
35150;SDS011;55720;51.972;4.624;2023-04-03T00:58:59;2.00;;;1.20;;
35150;SDS011;55720;51.972;4.624;2023-04-03T01:01:47;1.83;;;1.10;;
35150;SDS011;55720;51.972;4.624;2023-04-03T01:07:02;1.70;;;1.00;;
35150;SDS011;55720;51.972;4.624;2023-04-03T01:09:31;4.35;;;1.15;;
35150;SDS011;55720;51.972;4.624;2023-04-03T01:12:16;1.85;;;1.25;;
35150;SDS011;55720;51.972;4.624;2023-04-03T01:14:45;1.70;;;1.20;;
35150;SDS011;55720;51.972;4.624;2023-04-03T01:20:09;4.65;;;1.30;;
35150;SDS011;55720;51.972;4.624;2023-04-03T01:23:22;4.45;;;1.33;;
35150;SDS011;55720;51.972;4.624;2023-04-03T01:26:03;6.53;;;1.50;;
35150;SDS011;55720;51.972;4.624;2023-04-03T01:28:33;1.60;;;0.98;;
35150;SDS011;55720;51.972;4.624;2023-04-03T01:31:18;2.72;;;1.00;;
35150;SDS011;55720;51.972;4.624;2023-04-03T01:33:49;2.13;;;1.10;;
35150;SDS011;55720;51.972;4.624;2023-04-03T01:36:19;4.07;;;1.15;;
35150;SDS011;55720;51.972;4.624;2023-04-03T01:38:49;3.75;;;1.20;;
35150;SDS011;55720;51.972;4.624;2023-04-03T01:41:15;3.80;;;1.35;;
35150;SDS011;55720;51.972;4.624;2023-04-03T01:43:41;3.25;;;1.40;;
35150;SDS011;55720;51.972;4.624;2023-04-03T01:46:06;1.90;;;1.40;;
35150;SDS011;55720;51.972;4.624;2023-04-03T01:48:32;3.50;;;1.60;;
35150;SDS011;55720;51.972;4.624;2023-04-03T01:50:58;1.70;;;0.90;;
35150;SDS011;55720;51.972;4.624;2023-04-03T01:53:24;2.28;;;1.40;;
35150;SDS011;55720;51.972;4.624;2023-04-03T01:55:49;3.22;;;1.20;;
35150;SDS011;55720;51.972;4.624;2023-04-03T01:58:15;1.67;;;1.20;;
35150;SDS011;55720;51.972;4.624;2023-04-03T02:00:40;3.65;;;1.40;;
35150;SDS011;55720;51.972;4.624;2023-04-03T02:03:06;3.30;;;1.15;;
35150;SDS011;55720;51.972;4.624;2023-04-03T02:05:32;2.47;;;1.50;;
35150;SDS011;55720;51.972;4.624;2023-04-03T02:07:57;2.17;;;1.48;;
35150;SDS011;55720;51.972;4.624;2023-04-03T02:10:23;2.50;;;1.60;;
35150;SDS011;55720;51.972;4.624;2023-04-03T02:12:49;3.33;;;1.50;;
35150;SDS011;55720;51.972;4.624;2023-04-03T02:15:14;3.90;;;1.30;;
35150;SDS011;55720;51.972;4.624;2023-04-03T02:17:40;1.67;;;1.33;;
35150;SDS011;55720;51.972;4.624;2023-04-03T02:20:05;3.90;;;1.50;;
35150;SDS011;55720;51.972;4.624;2023-04-03T02:22:31;1.60;;;1.20;;
35150;SDS011;55720;51.972;4.624;2023-04-03T02:24:57;3.97;;;1.60;;
35150;SDS011;55720;51.972;4.624;2023-04-03T02:27:23;3.17;;;1.52;;
35150;SDS011;55720;51.972;4.624;2023-04-03T02:29:48;1.92;;;1.30;;
35150;SDS011;55720;51.972;4.624;2023-04-03T02:32:14;4.82;;;1.60;;
35150;SDS011;55720;51.972;4.624;2023-04-03T02:34:39;4.40;;;1.33;;
35150;SDS011;55720;51.972;4.624;2023-04-03T02:37:05;2.88;;;1.30;;
35150;SDS011;55720;51.972;4.624;2023-04-03T02:39:31;4.25;;;1.58;;
35150;SDS011;55720;51.972;4.624;2023-04-03T02:41:56;4.15;;;1.70;;
35150;SDS011;55720;51.972;4.624;2023-04-03T02:44:22;3.22;;;1.67;;
35150;SDS011;55720;51.972;4.624;2023-04-03T02:46:48;1.70;;;1.20;;
35150;SDS011;55720;51.972;4.624;2023-04-03T02:49:14;2.05;;;1.50;;
35150;SDS011;55720;51.972;4.624;2023-04-03T02:51:40;4.68;;;1.48;;
35150;SDS011;55720;51.972;4.624;2023-04-03T02:54:06;2.90;;;1.60;;
35150;SDS011;55720;51.972;4.624;2023-04-03T02:56:32;5.03;;;1.70;;
35150;SDS011;55720;51.972;4.624;2023-04-03T02:58:57;1.83;;;1.30;;
35150;SDS011;55720;51.972;4.624;2023-04-03T03:01:23;4.18;;;1.13;;
35150;SDS011;55720;51.972;4.624;2023-04-03T03:03:48;2.05;;;1.20;;
35150;SDS011;55720;51.972;4.624;2023-04-03T03:06:15;3.78;;;1.40;;
35150;SDS011;55720;51.972;4.624;2023-04-03T03:08:41;2.92;;;1.52;;
35150;SDS011;55720;51.972;4.624;2023-04-03T03:11:07;3.22;;;1.48;;
35150;SDS011;55720;51.972;4.624;2023-04-03T03:13:33;2.55;;;1.67;;
35150;SDS011;55720;51.972;4.624;2023-04-03T03:15:59;6.68;;;1.65;;
35150;SDS011;55720;51.972;4.624;2023-04-03T03:18:25;3.22;;;1.63;;
35150;SDS011;55720;51.972;4.624;2023-04-03T03:20:51;3.15;;;1.63;;
35150;SDS011;55720;51.972;4.624;2023-04-03T03:23:20;8.68;;;2.00;;
35150;SDS011;55720;51.972;4.624;2023-04-03T03:25:47;2.58;;;1.65;;
35150;SDS011;55720;51.972;4.624;2023-04-03T03:28:13;3.15;;;2.00;;
35150;SDS011;55720;51.972;4.624;2023-04-03T03:30:38;2.78;;;1.73;;
35150;SDS011;55720;51.972;4.624;2023-04-03T03:33:04;2.47;;;1.70;;
35150;SDS011;55720;51.972;4.624;2023-04-03T03:35:30;2.70;;;1.70;;
35150;SDS011;55720;51.972;4.624;2023-04-03T03:37:55;2.50;;;1.50;;
35150;SDS011;55720;51.972;4.624;2023-04-03T03:40:20;2.63;;;2.00;;
35150;SDS011;55720;51.972;4.624;2023-04-03T03:42:46;4.68;;;1.80;;
35150;SDS011;55720;51.972;4.624;2023-04-03T03:45:11;3.72;;;1.67;;
35150;SDS011;55720;51.972;4.624;2023-04-03T03:47:37;3.15;;;1.63;;
35150;SDS011;55720;51.972;4.624;2023-04-03T03:50:02;2.28;;;1.58;;
35150;SDS011;55720;51.972;4.624;2023-04-03T03:52:28;2.50;;;1.60;;
35150;SDS011;55720;51.972;4.624;2023-04-03T03:54:55;2.28;;;1.70;;
35150;SDS011;55720;51.972;4.624;2023-04-03T03:57:20;4.72;;;1.63;;
35150;SDS011;55720;51.972;4.624;2023-04-03T03:59:46;2.17;;;1.70;;
35150;SDS011;55720;51.972;4.624;2023-04-03T04:02:12;6.30;;;1.63;;
35150;SDS011;55720;51.972;4.624;2023-04-03T04:04:37;8.57;;;1.73;;
35150;SDS011;55720;51.972;4.624;2023-04-03T04:07:03;4.38;;;1.73;;
35150;SDS011;55720;51.972;4.624;2023-04-03T04:09:28;3.15;;;1.67;;
35150;SDS011;55720;51.972;4.624;2023-04-03T04:11:54;3.45;;;1.40;;
35150;SDS011;55720;51.972;4.624;2023-04-03T04:14:19;2.65;;;1.75;;
35150;SDS011;55720;51.972;4.624;2023-04-03T04:16:48;9.65;;;2.22;;
35150;SDS011;55720;51.972;4.624;2023-04-03T04:19:13;3.10;;;1.60;;
35150;SDS011;55720;51.972;4.624;2023-04-03T04:21:39;5.30;;;2.08;;
35150;SDS011;55720;51.972;4.624;2023-04-03T04:24:06;5.80;;;1.77;;
35150;SDS011;55720;51.972;4.624;2023-04-03T04:26:34;3.15;;;1.80;;
35150;SDS011;55720;51.972;4.624;2023-04-03T04:29:00;3.55;;;2.00;;
35150;SDS011;55720;51.972;4.624;2023-04-03T04:31:26;3.83;;;1.48;;
35150;SDS011;55720;51.972;4.624;2023-04-03T04:33:52;2.67;;;1.95;;
35150;SDS011;55720;51.972;4.624;2023-04-03T04:36:18;3.05;;;2.00;;
35150;SDS011;55720;51.972;4.624;2023-04-03T04:38:43;4.70;;;2.00;;
35150;SDS011;55720;51.972;4.624;2023-04-03T04:41:09;3.95;;;1.80;;
35150;SDS011;55720;51.972;4.624;2023-04-03T04:43:34;3.85;;;1.92;;
35150;SDS011;55720;51.972;4.624;2023-04-03T04:46:04;3.97;;;2.00;;
35150;SDS011;55720;51.972;4.624;2023-04-03T04:48:33;4.00;;;1.95;;
35150;SDS011;55720;51.972;4.624;2023-04-03T04:51:03;4.20;;;1.80;;
35150;SDS011;55720;51.972;4.624;2023-04-03T04:53:29;2.97;;;1.67;;
35150;SDS011;55720;51.972;4.624;2023-04-03T04:55:55;4.78;;;1.85;;
35150;SDS011;55720;51.972;4.624;2023-04-03T04:58:20;4.70;;;2.22;;
35150;SDS011;55720;51.972;4.624;2023-04-03T05:00:46;3.50;;;1.90;;
35150;SDS011;55720;51.972;4.624;2023-04-03T05:03:12;2.97;;;2.03;;
35150;SDS011;55720;51.972;4.624;2023-04-03T05:05:37;3.15;;;1.92;;
35150;SDS011;55720;51.972;4.624;2023-04-03T05:08:03;5.18;;;2.30;;
35150;SDS011;55720;51.972;4.624;2023-04-03T05:10:29;7.20;;;2.50;;
35150;SDS011;55720;51.972;4.624;2023-04-03T05:12:54;4.40;;;2.00;;
35150;SDS011;55720;51.972;4.624;2023-04-03T05:15:20;3.63;;;2.13;;
35150;SDS011;55720;51.972;4.624;2023-04-03T05:17:45;5.53;;;2.42;;
35150;SDS011;55720;51.972;4.624;2023-04-03T05:20:11;4.70;;;1.92;;
35150;SDS011;55720;51.972;4.624;2023-04-03T05:22:37;5.85;;;2.15;;
35150;SDS011;55720;51.972;4.624;2023-04-03T05:25:03;3.83;;;2.50;;
35150;SDS011;55720;51.972;4.624;2023-04-03T05:27:30;3.88;;;2.20;;
35150;SDS011;55720;51.972;4.624;2023-04-03T05:29:55;2.58;;;2.03;;
35150;SDS011;55720;51.972;4.624;2023-04-03T05:32:22;4.75;;;2.40;;
35150;SDS011;55720;51.972;4.624;2023-04-03T05:34:48;4.60;;;2.22;;
35150;SDS011;55720;51.972;4.624;2023-04-03T05:37:14;5.75;;;2.47;;
35150;SDS011;55720;51.972;4.624;2023-04-03T05:39:40;7.07;;;2.72;;
35150;SDS011;55720;51.972;4.624;2023-04-03T05:42:06;3.38;;;2.08;;
35150;SDS011;55720;51.972;4.624;2023-04-03T05:44:32;5.18;;;1.92;;
35150;SDS011;55720;51.972;4.624;2023-04-03T05:46:57;5.03;;;1.98;;
35150;SDS011;55720;51.972;4.624;2023-04-03T05:49:23;2.53;;;2.10;;
35150;SDS011;55720;51.972;4.624;2023-04-03T05:51:49;3.97;;;2.00;;
35150;SDS011;55720;51.972;4.624;2023-04-03T05:54:16;4.00;;;1.90;;
35150;SDS011;55720;51.972;4.624;2023-04-03T05:56:45;6.88;;;2.40;;
35150;SDS011;55720;51.972;4.624;2023-04-03T05:59:10;3.30;;;1.88;;
35150;SDS011;55720;51.972;4.624;2023-04-03T06:01:36;4.63;;;2.25;;
35150;SDS011;55720;51.972;4.624;2023-04-03T06:04:05;6.75;;;1.98;;
35150;SDS011;55720;51.972;4.624;2023-04-03T06:06:43;4.13;;;2.35;;
35150;SDS011;55720;51.972;4.624;2023-04-03T06:09:20;3.15;;;1.77;;
35150;SDS011;55720;51.972;4.624;2023-04-03T06:11:51;4.07;;;2.10;;
35150;SDS011;55720;51.972;4.624;2023-04-03T06:14:17;5.32;;;2.20;;
35150;SDS011;55720;51.972;4.624;2023-04-03T06:16:43;3.67;;;2.17;;
35150;SDS011;55720;51.972;4.624;2023-04-03T06:19:09;6.90;;;1.98;;
35150;SDS011;55720;51.972;4.624;2023-04-03T06:21:37;6.70;;;2.38;;
35150;SDS011;55720;51.972;4.624;2023-04-03T06:24:03;4.68;;;1.80;;
35150;SDS011;55720;51.972;4.624;2023-04-03T06:26:30;4.30;;;2.00;;
35150;SDS011;55720;51.972;4.624;2023-04-03T06:28:55;3.20;;;1.88;;
35150;SDS011;55720;51.972;4.624;2023-04-03T06:31:21;11.15;;;2.20;;
35150;SDS011;55720;51.972;4.624;2023-04-03T06:33:46;7.07;;;2.40;;
35150;SDS011;55720;51.972;4.624;2023-04-03T06:36:12;5.80;;;2.15;;
35150;SDS011;55720;51.972;4.624;2023-04-03T06:38:37;5.97;;;2.00;;
35150;SDS011;55720;51.972;4.624;2023-04-03T06:41:03;6.20;;;2.17;;
35150;SDS011;55720;51.972;4.624;2023-04-03T06:43:28;3.92;;;1.42;;
35150;SDS011;55720;51.972;4.624;2023-04-03T06:45:56;3.60;;;1.52;;
35150;SDS011;55720;51.972;4.624;2023-04-03T06:48:21;3.67;;;1.23;;
35150;SDS011;55720;51.972;4.624;2023-04-03T06:50:46;12.93;;;2.78;;
35150;SDS011;55720;51.972;4.624;2023-04-03T06:53:12;11.25;;;4.25;;
35150;SDS011;55720;51.972;4.624;2023-04-03T06:55:37;5.85;;;2.15;;
35150;SDS011;55720;51.972;4.624;2023-04-03T06:58:03;4.95;;;1.75;;
35150;SDS011;55720;51.972;4.624;2023-04-03T07:00:29;5.38;;;1.80;;
35150;SDS011;55720;51.972;4.624;2023-04-03T07:02:55;7.50;;;2.05;;
35150;SDS011;55720;51.972;4.624;2023-04-03T07:05:23;2.15;;;1.70;;
35150;SDS011;55720;51.972;4.624;2023-04-03T07:07:49;2.72;;;1.25;;
35150;SDS011;55720;51.972;4.624;2023-04-03T07:10:15;4.38;;;1.67;;
35150;SDS011;55720;51.972;4.624;2023-04-03T07:12:41;3.75;;;1.40;;
35150;SDS011;55720;51.972;4.624;2023-04-03T07:15:06;5.38;;;1.40;;
35150;SDS011;55720;51.972;4.624;2023-04-03T07:17:33;2.70;;;1.70;;
35150;SDS011;55720;51.972;4.624;2023-04-03T07:19:58;4.22;;;1.17;;
35150;SDS011;55720;51.972;4.624;2023-04-03T07:22:24;1.80;;;1.20;;
35150;SDS011;55720;51.972;4.624;2023-04-03T07:24:49;4.95;;;1.60;;
35150;SDS011;55720;51.972;4.624;2023-04-03T07:27:15;4.18;;;1.45;;
35150;SDS011;55720;51.972;4.624;2023-04-03T07:29:44;5.25;;;1.33;;
35150;SDS011;55720;51.972;4.624;2023-04-03T07:32:10;3.33;;;1.38;;
35150;SDS011;55720;51.972;4.624;2023-04-03T07:34:36;2.85;;;1.50;;
35150;SDS011;55720;51.972;4.624;2023-04-03T07:37:01;4.80;;;1.25;;
35150;SDS011;55720;51.972;4.624;2023-04-03T07:39:27;3.45;;;1.50;;
35150;SDS011;55720;51.972;4.624;2023-04-03T07:41:54;7.35;;;1.70;;
35150;SDS011;55720;51.972;4.624;2023-04-03T07:44:22;5.55;;;1.30;;
35150;SDS011;55720;51.972;4.624;2023-04-03T07:46:48;4.85;;;1.60;;
35150;SDS011;55720;51.972;4.624;2023-04-03T07:49:15;6.78;;;1.65;;
35150;SDS011;55720;51.972;4.624;2023-04-03T07:51:43;5.97;;;1.40;;
35150;SDS011;55720;51.972;4.624;2023-04-03T07:54:09;3.75;;;1.38;;
35150;SDS011;55720;51.972;4.624;2023-04-03T07:56:34;4.35;;;1.38;;
35150;SDS011;55720;51.972;4.624;2023-04-03T07:59:00;5.82;;;1.42;;
35150;SDS011;55720;51.972;4.624;2023-04-03T08:01:25;3.22;;;1.40;;
35150;SDS011;55720;51.972;4.624;2023-04-03T08:03:51;2.42;;;1.10;;
35150;SDS011;55720;51.972;4.624;2023-04-03T08:06:16;3.35;;;1.13;;
35150;SDS011;55720;51.972;4.624;2023-04-03T08:08:41;4.95;;;1.38;;
35150;SDS011;55720;51.972;4.624;2023-04-03T08:11:07;2.10;;;1.10;;
35150;SDS011;55720;51.972;4.624;2023-04-03T08:13:33;2.22;;;1.08;;
35150;SDS011;55720;51.972;4.624;2023-04-03T08:16:10;7.90;;;1.67;;
35150;SDS011;55720;51.972;4.624;2023-04-03T08:18:46;5.22;;;1.60;;
35150;SDS011;55720;51.972;4.624;2023-04-03T08:21:12;3.00;;;1.38;;
35150;SDS011;55720;51.972;4.624;2023-04-03T08:23:38;3.80;;;1.33;;
35150;SDS011;55720;51.972;4.624;2023-04-03T08:26:06;4.15;;;1.17;;
35150;SDS011;55720;51.972;4.624;2023-04-03T08:28:37;4.70;;;1.30;;
35150;SDS011;55720;51.972;4.624;2023-04-03T08:31:06;4.05;;;1.33;;
35150;SDS011;55720;51.972;4.624;2023-04-03T08:33:36;1.55;;;1.30;;
35150;SDS011;55720;51.972;4.624;2023-04-03T08:36:05;3.35;;;1.08;;
35150;SDS011;55720;51.972;4.624;2023-04-03T08:38:32;3.33;;;1.08;;
35150;SDS011;55720;51.972;4.624;2023-04-03T08:44:01;5.15;;;1.20;;
35150;SDS011;55720;51.972;4.624;2023-04-03T08:49:28;3.03;;;1.50;;
35150;SDS011;55720;51.972;4.624;2023-04-03T08:52:00;5.72;;;1.55;;
35150;SDS011;55720;51.972;4.624;2023-04-03T08:54:33;3.08;;;1.13;;
35150;SDS011;55720;51.972;4.624;2023-04-03T08:57:03;5.68;;;1.25;;
35150;SDS011;55720;51.972;4.624;2023-04-03T08:59:32;3.47;;;1.20;;
35150;SDS011;55720;51.972;4.624;2023-04-03T09:02:01;2.55;;;1.08;;
35150;SDS011;55720;51.972;4.624;2023-04-03T09:04:31;2.05;;;1.10;;
35150;SDS011;55720;51.972;4.624;2023-04-03T09:07:02;1.67;;;0.85;;
35150;SDS011;55720;51.972;4.624;2023-04-03T09:09:37;1.88;;;1.00;;
35150;SDS011;55720;51.972;4.624;2023-04-03T09:15:17;1.70;;;1.00;;
35150;SDS011;55720;51.972;4.624;2023-04-03T09:24:06;1.98;;;0.98;;
35150;SDS011;55720;51.972;4.624;2023-04-03T09:26:39;1.50;;;0.80;;
35150;SDS011;55720;51.972;4.624;2023-04-03T09:29:12;1.58;;;1.05;;
35150;SDS011;55720;51.972;4.624;2023-04-03T09:31:43;3.47;;;1.10;;
35150;SDS011;55720;51.972;4.624;2023-04-03T09:36:54;1.85;;;0.93;;
35150;SDS011;55720;51.972;4.624;2023-04-03T09:39:23;4.97;;;1.35;;
35150;SDS011;55720;51.972;4.624;2023-04-03T09:42:00;5.10;;;1.98;;
35150;SDS011;55720;51.972;4.624;2023-04-03T09:44:33;2.22;;;1.30;;
35150;SDS011;55720;51.972;4.624;2023-04-03T09:47:16;3.45;;;0.85;;
35150;SDS011;55720;51.972;4.624;2023-04-03T09:49:43;4.85;;;0.90;;
35150;SDS011;55720;51.972;4.624;2023-04-03T09:52:18;7.35;;;3.22;;
35150;SDS011;55720;51.972;4.624;2023-04-03T09:54:51;20.13;;;8.48;;
35150;SDS011;55720;51.972;4.624;2023-04-03T09:57:16;3.83;;;1.40;;
35150;SDS011;55720;51.972;4.624;2023-04-03T09:59:45;2.25;;;0.80;;
35150;SDS011;55720;51.972;4.624;2023-04-03T10:02:35;2.20;;;1.38;;
35150;SDS011;55720;51.972;4.624;2023-04-03T10:05:24;2.30;;;1.00;;
35150;SDS011;55720;51.972;4.624;2023-04-03T10:08:14;3.58;;;1.00;;
35150;SDS011;55720;51.972;4.624;2023-04-03T10:11:04;0.93;;;0.50;;
35150;SDS011;55720;51.972;4.624;2023-04-03T10:13:35;2.75;;;0.70;;
35150;SDS011;55720;51.972;4.624;2023-04-03T10:16:06;0.70;;;0.60;;
35150;SDS011;55720;51.972;4.624;2023-04-03T10:18:53;2.03;;;0.70;;
35150;SDS011;55720;51.972;4.624;2023-04-03T10:21:55;3.28;;;0.80;;
35150;SDS011;55720;51.972;4.624;2023-04-03T10:35:53;1.85;;;0.65;;
35150;SDS011;55720;51.972;4.624;2023-04-03T10:41:04;0.40;;;0.33;;
35150;SDS011;55720;51.972;4.624;2023-04-03T10:46:32;1.77;;;0.38;;
35150;SDS011;55720;51.972;4.624;2023-04-03T10:54:46;1.63;;;0.50;;
35150;SDS011;55720;51.972;4.624;2023-04-03T10:57:21;1.67;;;0.52;;
35150;SDS011;55720;51.972;4.624;2023-04-03T11:02:39;1.75;;;0.50;;
35150;SDS011;55720;51.972;4.624;2023-04-03T11:05:15;4.78;;;0.47;;
35150;SDS011;55720;51.972;4.624;2023-04-03T11:08:05;1.50;;;0.45;;
35150;SDS011;55720;51.972;4.624;2023-04-03T11:13:11;0.97;;;0.40;;
35150;SDS011;55720;51.972;4.624;2023-04-03T11:15:41;1.00;;;0.30;;
35150;SDS011;55720;51.972;4.624;2023-04-03T11:18:17;1.20;;;0.55;;
35150;SDS011;55720;51.972;4.624;2023-04-03T11:23:35;4.20;;;0.60;;
35150;SDS011;55720;51.972;4.624;2023-04-03T11:26:08;0.67;;;0.20;;
35150;SDS011;55720;51.972;4.624;2023-04-03T11:28:37;0.63;;;0.32;;
35150;SDS011;55720;51.972;4.624;2023-04-03T11:36:42;1.33;;;0.30;;
35150;SDS011;55720;51.972;4.624;2023-04-03T11:42:13;0.38;;;0.38;;
35150;SDS011;55720;51.972;4.624;2023-04-03T11:44:41;0.55;;;0.30;;
35150;SDS011;55720;51.972;4.624;2023-04-03T11:47:08;0.50;;;0.30;;
35150;SDS011;55720;51.972;4.624;2023-04-03T12:05:48;0.77;;;0.30;;
35150;SDS011;55720;51.972;4.624;2023-04-03T12:08:26;0.32;;;0.25;;
35150;SDS011;55720;51.972;4.624;2023-04-03T12:11:37;1.55;;;0.30;;
35150;SDS011;55720;51.972;4.624;2023-04-03T12:14:03;0.85;;;0.30;;
35150;SDS011;55720;51.972;4.624;2023-04-03T12:37:21;1.45;;;0.50;;
35150;SDS011;55720;51.972;4.624;2023-04-03T12:40:15;0.60;;;0.35;;
35150;SDS011;55720;51.972;4.624;2023-04-03T12:45:52;1.77;;;0.50;;
35150;SDS011;55720;51.972;4.624;2023-04-03T12:48:25;0.52;;;0.30;;
35150;SDS011;55720;51.972;4.624;2023-04-03T12:50:53;1.00;;;0.60;;
35150;SDS011;55720;51.972;4.624;2023-04-03T12:53:27;1.73;;;0.55;;
35150;SDS011;55720;51.972;4.624;2023-04-03T12:56:18;1.95;;;0.40;;
35150;SDS011;55720;51.972;4.624;2023-04-03T12:58:47;1.98;;;0.50;;
35150;SDS011;55720;51.972;4.624;2023-04-03T13:01:14;4.15;;;0.80;;
35150;SDS011;55720;51.972;4.624;2023-04-03T13:03:44;1.20;;;0.50;;
35150;SDS011;55720;51.972;4.624;2023-04-03T13:06:19;1.98;;;0.40;;
35150;SDS011;55720;51.972;4.624;2023-04-03T13:08:48;2.65;;;0.70;;
35150;SDS011;55720;51.972;4.624;2023-04-03T13:11:33;1.40;;;0.60;;
35150;SDS011;55720;51.972;4.624;2023-04-03T13:14:12;3.03;;;0.70;;
35150;SDS011;55720;51.972;4.624;2023-04-03T13:16:41;8.07;;;0.60;;
35150;SDS011;55720;51.972;4.624;2023-04-03T13:19:15;3.00;;;0.70;;
35150;SDS011;55720;51.972;4.624;2023-04-03T13:21:42;1.25;;;0.57;;
35150;SDS011;55720;51.972;4.624;2023-04-03T13:24:09;2.90;;;0.77;;
35150;SDS011;55720;51.972;4.624;2023-04-03T13:26:35;1.10;;;0.60;;
35150;SDS011;55720;51.972;4.624;2023-04-03T13:29:14;1.50;;;0.60;;
35150;SDS011;55720;51.972;4.624;2023-04-03T13:31:47;3.25;;;0.50;;
35150;SDS011;55720;51.972;4.624;2023-04-03T13:34:19;2.28;;;0.60;;
35150;SDS011;55720;51.972;4.624;2023-04-03T13:36:56;1.25;;;0.68;;
35150;SDS011;55720;51.972;4.624;2023-04-03T13:39:25;1.38;;;0.60;;
35150;SDS011;55720;51.972;4.624;2023-04-03T13:41:51;2.00;;;1.05;;
35150;SDS011;55720;51.972;4.624;2023-04-03T13:46:47;1.58;;;0.68;;
35150;SDS011;55720;51.972;4.624;2023-04-03T13:51:51;4.82;;;0.60;;
35150;SDS011;55720;51.972;4.624;2023-04-03T13:54:38;1.52;;;0.80;;
35150;SDS011;55720;51.972;4.624;2023-04-03T13:57:11;0.93;;;0.65;;
35150;SDS011;55720;51.972;4.624;2023-04-03T13:59:38;1.42;;;0.50;;
35150;SDS011;55720;51.972;4.624;2023-04-03T14:04:31;0.90;;;0.60;;
35150;SDS011;55720;51.972;4.624;2023-04-03T14:07:18;1.33;;;0.73;;
35150;SDS011;55720;51.972;4.624;2023-04-03T14:09:46;1.13;;;0.60;;
35150;SDS011;55720;51.972;4.624;2023-04-03T14:12:24;4.25;;;0.70;;
35150;SDS011;55720;51.972;4.624;2023-04-03T14:14:52;1.45;;;0.95;;
35150;SDS011;55720;51.972;4.624;2023-04-03T14:17:23;2.00;;;0.70;;
35150;SDS011;55720;51.972;4.624;2023-04-03T14:19:50;1.02;;;0.57;;
35150;SDS011;55720;51.972;4.624;2023-04-03T14:22:18;1.52;;;0.75;;
35150;SDS011;55720;51.972;4.624;2023-04-03T14:24:47;1.63;;;0.60;;
35150;SDS011;55720;51.972;4.624;2023-04-03T14:27:25;1.60;;;0.57;;
35150;SDS011;55720;51.972;4.624;2023-04-03T14:29:53;2.00;;;0.70;;
35150;SDS011;55720;51.972;4.624;2023-04-03T14:32:21;1.05;;;0.93;;
35150;SDS011;55720;51.972;4.624;2023-04-03T14:34:48;1.85;;;0.80;;
35150;SDS011;55720;51.972;4.624;2023-04-03T14:37:25;1.55;;;0.70;;
35150;SDS011;55720;51.972;4.624;2023-04-03T14:39:53;1.55;;;0.60;;
35150;SDS011;55720;51.972;4.624;2023-04-03T14:42:20;1.00;;;0.57;;
35150;SDS011;55720;51.972;4.624;2023-04-03T14:44:51;4.18;;;1.15;;
35150;SDS011;55720;51.972;4.624;2023-04-03T14:47:19;2.45;;;0.60;;
35150;SDS011;55720;51.972;4.624;2023-04-03T14:49:46;1.20;;;0.90;;
35150;SDS011;55720;51.972;4.624;2023-04-03T14:52:45;2.25;;;0.88;;
35150;SDS011;55720;51.972;4.624;2023-04-03T14:55:04;1.58;;;0.63;;
35150;SDS011;55720;51.972;4.624;2023-04-03T14:57:32;1.40;;;0.73;;
35150;SDS011;55720;51.972;4.624;2023-04-03T14:59:58;2.03;;;1.17;;
35150;SDS011;55720;51.972;4.624;2023-04-03T15:02:27;3.03;;;0.85;;
35150;SDS011;55720;51.972;4.624;2023-04-03T15:04:58;1.05;;;0.70;;
35150;SDS011;55720;51.972;4.624;2023-04-03T15:07:28;2.05;;;0.80;;
35150;SDS011;55720;51.972;4.624;2023-04-03T15:09:55;2.63;;;0.90;;
35150;SDS011;55720;51.972;4.624;2023-04-03T15:12:22;1.83;;;0.95;;
35150;SDS011;55720;51.972;4.624;2023-04-03T15:14:48;4.32;;;1.15;;
35150;SDS011;55720;51.972;4.624;2023-04-03T15:17:17;4.88;;;0.90;;
35150;SDS011;55720;51.972;4.624;2023-04-03T15:19:46;2.22;;;0.95;;
35150;SDS011;55720;51.972;4.624;2023-04-03T15:22:18;0.82;;;0.65;;
35150;SDS011;55720;51.972;4.624;2023-04-03T15:24:45;1.83;;;0.60;;
35150;SDS011;55720;51.972;4.624;2023-04-03T15:27:11;2.85;;;0.70;;
35150;SDS011;55720;51.972;4.624;2023-04-03T15:29:39;1.95;;;0.77;;
35150;SDS011;55720;51.972;4.624;2023-04-03T15:32:06;1.45;;;0.90;;
35150;SDS011;55720;51.972;4.624;2023-04-03T15:34:35;2.22;;;0.80;;
35150;SDS011;55720;51.972;4.624;2023-04-03T15:37:01;2.35;;;0.80;;
35150;SDS011;55720;51.972;4.624;2023-04-03T15:39:26;2.47;;;0.93;;
35150;SDS011;55720;51.972;4.624;2023-04-03T15:41:52;1.15;;;0.70;;
35150;SDS011;55720;51.972;4.624;2023-04-03T15:44:19;3.40;;;0.88;;
35150;SDS011;55720;51.972;4.624;2023-04-03T15:46:45;4.47;;;0.98;;
35150;SDS011;55720;51.972;4.624;2023-04-03T15:49:13;0.80;;;0.70;;
35150;SDS011;55720;51.972;4.624;2023-04-03T15:51:39;1.27;;;0.82;;
35150;SDS011;55720;51.972;4.624;2023-04-03T15:54:05;2.53;;;0.90;;
35150;SDS011;55720;51.972;4.624;2023-04-03T15:56:30;2.47;;;0.88;;
35150;SDS011;55720;51.972;4.624;2023-04-03T15:58:59;2.53;;;0.70;;
35150;SDS011;55720;51.972;4.624;2023-04-03T16:01:26;2.28;;;0.80;;
35150;SDS011;55720;51.972;4.624;2023-04-03T16:03:52;1.50;;;0.90;;
35150;SDS011;55720;51.972;4.624;2023-04-03T16:06:18;1.38;;;0.90;;
35150;SDS011;55720;51.972;4.624;2023-04-03T16:08:44;1.33;;;0.70;;
35150;SDS011;55720;51.972;4.624;2023-04-03T16:11:12;1.35;;;0.90;;
35150;SDS011;55720;51.972;4.624;2023-04-03T16:13:37;1.88;;;1.00;;
35150;SDS011;55720;51.972;4.624;2023-04-03T16:16:03;4.25;;;1.00;;
35150;SDS011;55720;51.972;4.624;2023-04-03T16:18:29;1.23;;;0.77;;
35150;SDS011;55720;51.972;4.624;2023-04-03T16:20:55;1.35;;;0.90;;
35150;SDS011;55720;51.972;4.624;2023-04-03T16:23:21;1.55;;;0.93;;
35150;SDS011;55720;51.972;4.624;2023-04-03T16:25:47;1.40;;;0.90;;
35150;SDS011;55720;51.972;4.624;2023-04-03T16:28:15;3.05;;;1.00;;
35150;SDS011;55720;51.972;4.624;2023-04-03T16:30:43;1.70;;;0.98;;
35150;SDS011;55720;51.972;4.624;2023-04-03T16:33:10;3.20;;;0.80;;
35150;SDS011;55720;51.972;4.624;2023-04-03T16:35:38;2.08;;;0.68;;
35150;SDS011;55720;51.972;4.624;2023-04-03T16:38:04;1.75;;;0.80;;
35150;SDS011;55720;51.972;4.624;2023-04-03T16:40:29;1.80;;;0.77;;
35150;SDS011;55720;51.972;4.624;2023-04-03T16:42:55;1.40;;;1.00;;
35150;SDS011;55720;51.972;4.624;2023-04-03T16:45:21;3.40;;;1.65;;
35150;SDS011;55720;51.972;4.624;2023-04-03T16:47:46;4.32;;;0.90;;
35150;SDS011;55720;51.972;4.624;2023-04-03T16:50:12;1.98;;;1.15;;
35150;SDS011;55720;51.972;4.624;2023-04-03T16:52:37;2.35;;;0.98;;